• Join FlightAware (Why Join?)
  • Login
  • US Flag 
06:35AM EST


 

Airport Tracker/Info


-or-


 

Live Flight TrackerFlight Track Log ✈ N449ND ✈ 06-Jan-2014 ✈ KFPR - KFPR

Flight Track Log - Related Links

Times and Time Zones

All times are in EST time to prevent confusion due to time zone crossing. See the N449ND flight status page for this flight to view local times or setup timezone preferences in your user account.

Time Position Orientation Groundspeed Altitude Reporting Facility
EST Latitude Longitude Course Direction KTS MPH feet Rate Location/Type
11:41AM 27.4975 -80.3828 328° Northwest 101 116 600  Level Miami Center
11:42AM 27.5011 -80.4086 279° West 90 104 1,200 1,200 Climbing Miami Center
11:43AM 27.5047 -80.4297 281° West 85 98 3,000 600 Climbing Miami Center
11:44AM 27.5064 -80.4486 276° West 79 91 2,500  Descending Miami Center
11:45AM 27.5164 -80.4653 304° West 61 70 3,000 240 Climbing Miami Center
11:46AM 27.4975 -80.3726 328° Northwest  Level Estimated
11:46AM 27.5258 -80.4281 74° East 52 60 3,000  Level Miami Center
11:47AM 27.5328 -80.3908 78° East 108 124 3,000  Level Miami Center
11:48AM 27.5339 -80.3533 88° East 132 152 3,000  Level Miami Center
11:49AM 27.5328 -80.3136 92° East 126 145 3,000  Level Miami Center
11:50AM 27.5275 -80.2689 98° East 126 145 3,000  Level Miami Center
11:51AM 27.5428 -80.2367 62° Northeast 119 137 3,000 -120 Level Miami Center
11:52AM 27.5703 -80.2233 23° Northeast 109 125 2,800 -300 Descending Miami Center
11:53AM 27.5908 -80.2403 324° Northwest 96 110 2,500 -300 Descending Miami Center
11:54AM 27.6028 -80.2642 299° West 90 104 2,200 -300 Descending Miami Center
11:55AM 27.6125 -80.2925 291° West 90 104 1,900 -240 Descending Miami Center
11:56AM 27.6203 -80.3186 289° West 90 104 1,800 -300 Descending Miami Center
11:57AM 27.6258 -80.3422 285° West 90 104 1,400 -480 Descending Miami Center
11:58AM 27.6339 -80.3611 296° West 90 104 900 -420 Descending Miami Center
11:59AM 27.6436 -80.3850 295° West 85 98 600 -240 Descending Miami Center
12:00PM 27.6514 -80.4086 290° West 85 98 500 240 Descending Miami Center
12:01PM 27.6508 -80.4319 268° West 85 98 1,100 1,200 Climbing Miami Center
12:02PM 27.6503 -80.4508 268° West 80 92 3,000 600 Climbing Miami Center
12:03PM 27.6500 -80.4672 269° West 72 83 2,400  Descending Miami Center
12:04PM 27.6475 -80.4881 262° West 66 76 3,000 300 Climbing Miami Center
12:05PM 27.6364 -80.5089 239° Southwest 71 82 3,000  Level Miami Center
12:06PM 27.6119 -80.4894 145° Southeast 72 83 3,000  Level Miami Center
12:07PM 27.5894 -80.4653 136° Southeast 113 130 3,000  Level Miami Center
12:08PM 27.5822 -80.4275 102° East 119 137 3,000  Level Miami Center
12:09PM 27.5811 -80.3831 92° East 124 143 3,000  Level Miami Center
12:10PM 27.5758 -80.3453 99° East 124 143 3,000  Level Miami Center
12:11PM 27.5706 -80.3053 98° East 124 143 3,000  Level Miami Center
12:12PM 27.5672 -80.2700 96° East 124 143 3,000  Level Miami Center
12:13PM 27.5619 -80.2256 98° East 124 143 3,000  Level Miami Center
12:14PM 27.5586 -80.1831 95° East 124 143 3,000  Level Miami Center
12:15PM 27.5553 -80.1456 96° East 124 143 3,000  Level Miami Center
12:16PM 27.5561 -80.1081 89° East 124 143 3,000  Level Miami Center
12:17PM 27.5656 -80.0686 75° East 124 143 3,000  Level Miami Center
12:18PM 27.5736 -80.0828 303° West 30 35 3,100  Climbing Miami Center
12:19PM 27.5564 -80.0989 220° Southwest 57 66 3,000 -60 Descending Miami Center
12:20PM 27.5517 -80.1219 257° West 84 97 3,000  Level Miami Center
12:21PM 27.5597 -80.1411 295° West 77 89 3,100  Climbing Miami Center
12:22PM 27.5750 -80.1111 60° Northeast 80 92 3,000 -120 Descending Miami Center
12:23PM 27.5631 -80.0825 115° Southeast 88 101 2,900 -240 Descending Miami Center
12:24PM 27.5542 -80.1058 247° West 62 71 2,600 -300 Descending Miami Center
12:25PM 27.5517 -80.1292 263° West 73 84 2,300 -300 Descending Miami Center
12:26PM 27.5283 -80.1378 198° South 79 91 2,100 -120 Descending Miami Center
12:27PM 27.5053 -80.1464 198° South 92 106 2,100 -60 Level Miami Center
12:28PM 27.4800 -80.1528 193° South 92 106 2,000 -60 Descending Miami Center
12:29PM 27.4569 -80.1639 203° Southwest 92 106 2,000 -120 Level Miami Center
12:30PM 27.4583 -80.1897 273° West 77 89 1,800 -240 Descending Miami Center
12:31PM 27.4642 -80.2133 286° West 89 102 1,600 -120 Descending Miami Center
12:32PM 27.4717 -80.2414 287° West 89 102 1,600  Level Miami Center
12:33PM 27.4775 -80.2675 284° West 89 102 1,700 -60 Climbing Miami Center
12:34PM 27.4831 -80.2911 285° West 89 102 1,500 -420 Descending Miami Center
12:35PM 27.4889 -80.3122 287° West 84 97 900 -540 Descending Miami Center
12:36PM 27.4947 -80.3333 287° West 84 97 500 -420 Descending Miami Center